sensor_id;sensor_type;location;lat;lon;timestamp;P1;durP1;ratioP1;P2;durP2;ratioP2
42598;SDS011;28225;42.714;23.860;2024-03-02T00:00:01;29.05;;;18.75;;
42598;SDS011;28225;42.714;23.860;2024-03-02T00:00:24;29.10;;;19.02;;
42598;SDS011;28225;42.714;23.860;2024-03-02T00:00:40;28.02;;;19.65;;
42598;SDS011;28225;42.714;23.860;2024-03-02T00:00:56;27.85;;;19.88;;
42598;SDS011;28225;42.714;23.860;2024-03-02T00:01:11;27.90;;;19.10;;
42598;SDS011;28225;42.714;23.860;2024-03-02T00:01:26;28.77;;;19.37;;
42598;SDS011;28225;42.714;23.860;2024-03-02T00:01:42;27.77;;;19.13;;
42598;SDS011;28225;42.714;23.860;2024-03-02T00:01:57;27.07;;;18.43;;
42598;SDS011;28225;42.714;23.860;2024-03-02T00:02:13;27.77;;;19.08;;
42598;SDS011;28225;42.714;23.860;2024-03-02T00:02:31;26.13;;;18.77;;
42598;SDS011;28225;42.714;23.860;2024-03-02T00:02:47;25.60;;;18.42;;
42598;SDS011;28225;42.714;23.860;2024-03-02T00:03:06;29.10;;;19.45;;
42598;SDS011;28225;42.714;23.860;2024-03-02T00:03:22;28.92;;;19.13;;
42598;SDS011;28225;42.714;23.860;2024-03-02T00:03:38;27.20;;;17.90;;
42598;SDS011;28225;42.714;23.860;2024-03-02T00:03:53;25.90;;;18.17;;
42598;SDS011;28225;42.714;23.860;2024-03-02T00:04:08;26.67;;;18.67;;
42598;SDS011;28225;42.714;23.860;2024-03-02T00:04:24;26.98;;;18.30;;
42598;SDS011;28225;42.714;23.860;2024-03-02T00:04:40;25.97;;;18.03;;
42598;SDS011;28225;42.714;23.860;2024-03-02T00:04:55;25.60;;;18.17;;
42598;SDS011;28225;42.714;23.860;2024-03-02T00:05:11;25.67;;;17.70;;
42598;SDS011;28225;42.714;23.860;2024-03-02T00:05:27;24.60;;;17.02;;
42598;SDS011;28225;42.714;23.860;2024-03-02T00:05:42;25.07;;;16.83;;
42598;SDS011;28225;42.714;23.860;2024-03-02T00:05:58;25.08;;;16.98;;
42598;SDS011;28225;42.714;23.860;2024-03-02T00:06:19;24.17;;;17.35;;
42598;SDS011;28225;42.714;23.860;2024-03-02T00:06:36;22.30;;;16.75;;
42598;SDS011;28225;42.714;23.860;2024-03-02T00:06:52;22.33;;;17.02;;
42598;SDS011;28225;42.714;23.860;2024-03-02T00:07:11;24.25;;;17.33;;
42598;SDS011;28225;42.714;23.860;2024-03-02T00:07:29;24.92;;;17.10;;
42598;SDS011;28225;42.714;23.860;2024-03-02T00:07:45;25.20;;;17.20;;
42598;SDS011;28225;42.714;23.860;2024-03-02T00:08:04;24.03;;;16.93;;
42598;SDS011;28225;42.714;23.860;2024-03-02T00:08:24;24.35;;;17.02;;
42598;SDS011;28225;42.714;23.860;2024-03-02T00:08:40;25.58;;;17.70;;
42598;SDS011;28225;42.714;23.860;2024-03-02T00:08:57;24.98;;;17.35;;
42598;SDS011;28225;42.714;23.860;2024-03-02T00:09:14;24.92;;;16.83;;
42598;SDS011;28225;42.714;23.860;2024-03-02T00:09:30;24.67;;;16.60;;
42598;SDS011;28225;42.714;23.860;2024-03-02T00:09:45;23.33;;;16.30;;
42598;SDS011;28225;42.714;23.860;2024-03-02T00:10:01;22.83;;;16.43;;
42598;SDS011;28225;42.714;23.860;2024-03-02T00:10:22;25.35;;;17.70;;
42598;SDS011;28225;42.714;23.860;2024-03-02T00:10:40;24.92;;;17.52;;
42598;SDS011;28225;42.714;23.860;2024-03-02T00:10:59;23.13;;;16.53;;
42598;SDS011;28225;42.714;23.860;2024-03-02T00:11:15;23.23;;;16.52;;
42598;SDS011;28225;42.714;23.860;2024-03-02T00:11:34;25.42;;;17.60;;
42598;SDS011;28225;42.714;23.860;2024-03-02T00:11:50;25.95;;;17.75;;
42598;SDS011;28225;42.714;23.860;2024-03-02T00:12:06;25.13;;;18.10;;
42598;SDS011;28225;42.714;23.860;2024-03-02T00:12:22;26.17;;;17.87;;
42598;SDS011;28225;42.714;23.860;2024-03-02T00:12:38;26.90;;;17.67;;
42598;SDS011;28225;42.714;23.860;2024-03-02T00:12:55;24.17;;;16.65;;
42598;SDS011;28225;42.714;23.860;2024-03-02T00:13:11;24.75;;;16.20;;
42598;SDS011;28225;42.714;23.860;2024-03-02T00:13:28;26.80;;;16.85;;
42598;SDS011;28225;42.714;23.860;2024-03-02T00:13:45;25.08;;;17.25;;
42598;SDS011;28225;42.714;23.860;2024-03-02T00:14:01;24.60;;;17.33;;
42598;SDS011;28225;42.714;23.860;2024-03-02T00:14:16;23.45;;;17.05;;
42598;SDS011;28225;42.714;23.860;2024-03-02T00:14:32;24.23;;;17.47;;
42598;SDS011;28225;42.714;23.860;2024-03-02T00:14:47;25.10;;;17.70;;
42598;SDS011;28225;42.714;23.860;2024-03-02T00:15:06;24.77;;;17.57;;
42598;SDS011;28225;42.714;23.860;2024-03-02T00:15:46;24.27;;;17.70;;
42598;SDS011;28225;42.714;23.860;2024-03-02T00:16:02;24.98;;;17.15;;
42598;SDS011;28225;42.714;23.860;2024-03-02T00:16:20;24.25;;;16.55;;
42598;SDS011;28225;42.714;23.860;2024-03-02T00:16:36;24.27;;;16.23;;
42598;SDS011;28225;42.714;23.860;2024-03-02T00:16:52;23.88;;;16.55;;
42598;SDS011;28225;42.714;23.860;2024-03-02T00:17:09;25.27;;;16.73;;
42598;SDS011;28225;42.714;23.860;2024-03-02T00:17:34;26.80;;;17.30;;
42598;SDS011;28225;42.714;23.860;2024-03-02T00:17:52;25.33;;;16.77;;
42598;SDS011;28225;42.714;23.860;2024-03-02T00:18:12;25.13;;;17.15;;
42598;SDS011;28225;42.714;23.860;2024-03-02T00:18:32;25.67;;;17.48;;
42598;SDS011;28225;42.714;23.860;2024-03-02T00:18:49;22.77;;;16.75;;
42598;SDS011;28225;42.714;23.860;2024-03-02T00:19:05;24.40;;;16.50;;
42598;SDS011;28225;42.714;23.860;2024-03-02T00:19:21;23.58;;;16.05;;
42598;SDS011;28225;42.714;23.860;2024-03-02T00:19:38;22.38;;;16.33;;
42598;SDS011;28225;42.714;23.860;2024-03-02T00:19:54;23.10;;;16.10;;
42598;SDS011;28225;42.714;23.860;2024-03-02T00:20:10;22.80;;;16.00;;
42598;SDS011;28225;42.714;23.860;2024-03-02T00:20:26;22.10;;;16.08;;
42598;SDS011;28225;42.714;23.860;2024-03-02T00:20:44;21.55;;;16.23;;
42598;SDS011;28225;42.714;23.860;2024-03-02T00:21:00;22.27;;;16.42;;
42598;SDS011;28225;42.714;23.860;2024-03-02T00:21:17;24.45;;;16.77;;
42598;SDS011;28225;42.714;23.860;2024-03-02T00:21:35;25.77;;;17.38;;
42598;SDS011;28225;42.714;23.860;2024-03-02T00:21:50;23.27;;;16.58;;
42598;SDS011;28225;42.714;23.860;2024-03-02T00:22:06;22.83;;;16.37;;
42598;SDS011;28225;42.714;23.860;2024-03-02T00:22:22;24.98;;;16.75;;
42598;SDS011;28225;42.714;23.860;2024-03-02T00:22:38;26.83;;;16.90;;
42598;SDS011;28225;42.714;23.860;2024-03-02T00:22:55;25.98;;;16.73;;
42598;SDS011;28225;42.714;23.860;2024-03-02T00:23:16;26.00;;;17.55;;
42598;SDS011;28225;42.714;23.860;2024-03-02T00:23:34;25.88;;;17.05;;
42598;SDS011;28225;42.714;23.860;2024-03-02T00:23:50;23.47;;;16.40;;
42598;SDS011;28225;42.714;23.860;2024-03-02T00:24:49;25.85;;;18.02;;
42598;SDS011;28225;42.714;23.860;2024-03-02T00:25:04;24.83;;;17.75;;
42598;SDS011;28225;42.714;23.860;2024-03-02T00:25:20;22.92;;;16.80;;
42598;SDS011;28225;42.714;23.860;2024-03-02T00:25:37;23.57;;;17.07;;
42598;SDS011;28225;42.714;23.860;2024-03-02T00:25:55;24.05;;;17.00;;
42598;SDS011;28225;42.714;23.860;2024-03-02T00:26:13;25.30;;;17.13;;
42598;SDS011;28225;42.714;23.860;2024-03-02T00:26:29;26.58;;;17.48;;
42598;SDS011;28225;42.714;23.860;2024-03-02T00:26:45;27.05;;;17.38;;
42598;SDS011;28225;42.714;23.860;2024-03-02T00:27:01;26.80;;;17.15;;
42598;SDS011;28225;42.714;23.860;2024-03-02T00:27:16;25.05;;;16.90;;
42598;SDS011;28225;42.714;23.860;2024-03-02T00:27:33;24.10;;;17.50;;
42598;SDS011;28225;42.714;23.860;2024-03-02T00:27:48;23.20;;;17.45;;
42598;SDS011;28225;42.714;23.860;2024-03-02T00:28:04;23.00;;;16.70;;
42598;SDS011;28225;42.714;23.860;2024-03-02T00:28:32;24.02;;;16.52;;
42598;SDS011;28225;42.714;23.860;2024-03-02T00:28:49;23.25;;;16.63;;
42598;SDS011;28225;42.714;23.860;2024-03-02T00:29:05;23.73;;;17.10;;
42598;SDS011;28225;42.714;23.860;2024-03-02T00:29:21;24.40;;;17.10;;
42598;SDS011;28225;42.714;23.860;2024-03-02T00:29:36;25.53;;;17.33;;
42598;SDS011;28225;42.714;23.860;2024-03-02T00:29:52;26.65;;;17.75;;
42598;SDS011;28225;42.714;23.860;2024-03-02T00:31:09;25.67;;;17.33;;
42598;SDS011;28225;42.714;23.860;2024-03-02T00:31:10;27.25;;;17.70;;
42598;SDS011;28225;42.714;23.860;2024-03-02T00:31:27;23.83;;;17.25;;
42598;SDS011;28225;42.714;23.860;2024-03-02T00:31:42;25.33;;;17.13;;
42598;SDS011;28225;42.714;23.860;2024-03-02T00:31:58;27.20;;;17.50;;
42598;SDS011;28225;42.714;23.860;2024-03-02T00:32:13;25.70;;;17.65;;
42598;SDS011;28225;42.714;23.860;2024-03-02T00:32:31;24.00;;;17.15;;
42598;SDS011;28225;42.714;23.860;2024-03-02T00:32:47;23.92;;;16.73;;
42598;SDS011;28225;42.714;23.860;2024-03-02T00:33:06;23.50;;;16.67;;
42598;SDS011;28225;42.714;23.860;2024-03-02T00:33:22;22.33;;;15.85;;
42598;SDS011;28225;42.714;23.860;2024-03-02T00:33:45;23.25;;;15.88;;
42598;SDS011;28225;42.714;23.860;2024-03-02T00:34:01;23.40;;;15.95;;
42598;SDS011;28225;42.714;23.860;2024-03-02T00:34:20;25.17;;;16.58;;
42598;SDS011;28225;42.714;23.860;2024-03-02T00:34:36;22.92;;;16.40;;
42598;SDS011;28225;42.714;23.860;2024-03-02T00:34:52;23.20;;;16.15;;
42598;SDS011;28225;42.714;23.860;2024-03-02T00:35:08;23.58;;;16.92;;
42598;SDS011;28225;42.714;23.860;2024-03-02T00:35:25;22.08;;;16.60;;
42598;SDS011;28225;42.714;23.860;2024-03-02T00:35:43;23.25;;;16.42;;
42598;SDS011;28225;42.714;23.860;2024-03-02T00:35:59;24.77;;;16.52;;
42598;SDS011;28225;42.714;23.860;2024-03-02T00:36:16;23.10;;;16.38;;
42598;SDS011;28225;42.714;23.860;2024-03-02T00:36:37;22.05;;;15.85;;
42598;SDS011;28225;42.714;23.860;2024-03-02T00:36:53;23.50;;;16.73;;
42598;SDS011;28225;42.714;23.860;2024-03-02T00:37:08;22.80;;;16.77;;
42598;SDS011;28225;42.714;23.860;2024-03-02T00:37:24;23.35;;;16.35;;
42598;SDS011;28225;42.714;23.860;2024-03-02T00:37:39;23.80;;;16.20;;
42598;SDS011;28225;42.714;23.860;2024-03-02T00:37:55;23.88;;;17.05;;
42598;SDS011;28225;42.714;23.860;2024-03-02T00:38:10;23.57;;;17.40;;
42598;SDS011;28225;42.714;23.860;2024-03-02T00:38:26;23.20;;;16.27;;
42598;SDS011;28225;42.714;23.860;2024-03-02T00:38:49;23.98;;;16.38;;
42598;SDS011;28225;42.714;23.860;2024-03-02T00:39:05;24.42;;;15.93;;
42598;SDS011;28225;42.714;23.860;2024-03-02T00:39:22;23.70;;;15.68;;
42598;SDS011;28225;42.714;23.860;2024-03-02T00:39:38;24.63;;;16.58;;
42598;SDS011;28225;42.714;23.860;2024-03-02T00:39:54;24.55;;;16.85;;
42598;SDS011;28225;42.714;23.860;2024-03-02T00:40:09;24.57;;;16.93;;
42598;SDS011;28225;42.714;23.860;2024-03-02T00:40:27;23.30;;;17.08;;
42598;SDS011;28225;42.714;23.860;2024-03-02T00:40:44;21.90;;;16.15;;
42598;SDS011;28225;42.714;23.860;2024-03-02T00:41:06;22.90;;;16.00;;
42598;SDS011;28225;42.714;23.860;2024-03-02T00:41:24;22.48;;;15.20;;
42598;SDS011;28225;42.714;23.860;2024-03-02T00:41:41;21.98;;;15.63;;
42598;SDS011;28225;42.714;23.860;2024-03-02T00:41:59;24.10;;;16.40;;
42598;SDS011;28225;42.714;23.860;2024-03-02T00:42:14;22.53;;;16.47;;
42598;SDS011;28225;42.714;23.860;2024-03-02T00:42:31;22.50;;;16.42;;
42598;SDS011;28225;42.714;23.860;2024-03-02T00:42:46;22.75;;;16.10;;
42598;SDS011;28225;42.714;23.860;2024-03-02T00:43:02;21.67;;;15.70;;
42598;SDS011;28225;42.714;23.860;2024-03-02T00:44:14;22.08;;;16.35;;
42598;SDS011;28225;42.714;23.860;2024-03-02T00:44:30;22.00;;;15.88;;
42598;SDS011;28225;42.714;23.860;2024-03-02T00:44:50;21.48;;;15.68;;
42598;SDS011;28225;42.714;23.860;2024-03-02T00:45:08;22.00;;;15.70;;
42598;SDS011;28225;42.714;23.860;2024-03-02T00:45:24;25.15;;;16.20;;
42598;SDS011;28225;42.714;23.860;2024-03-02T00:45:40;24.75;;;16.05;;
42598;SDS011;28225;42.714;23.860;2024-03-02T00:45:56;23.63;;;15.57;;
42598;SDS011;28225;42.714;23.860;2024-03-02T00:46:12;25.08;;;16.45;;
42598;SDS011;28225;42.714;23.860;2024-03-02T00:46:34;25.33;;;17.58;;
42598;SDS011;28225;42.714;23.860;2024-03-02T00:46:51;22.25;;;16.50;;
42598;SDS011;28225;42.714;23.860;2024-03-02T00:47:06;22.73;;;16.60;;
42598;SDS011;28225;42.714;23.860;2024-03-02T00:47:22;21.88;;;15.82;;
42598;SDS011;28225;42.714;23.860;2024-03-02T00:47:40;21.07;;;16.00;;
42598;SDS011;28225;42.714;23.860;2024-03-02T00:47:56;24.67;;;17.00;;
42598;SDS011;28225;42.714;23.860;2024-03-02T00:48:11;25.48;;;16.92;;
42598;SDS011;28225;42.714;23.860;2024-03-02T00:48:31;23.27;;;16.02;;
42598;SDS011;28225;42.714;23.860;2024-03-02T00:48:53;23.77;;;16.33;;
42598;SDS011;28225;42.714;23.860;2024-03-02T00:49:17;22.63;;;15.98;;
42598;SDS011;28225;42.714;23.860;2024-03-02T00:49:35;23.95;;;15.93;;
42598;SDS011;28225;42.714;23.860;2024-03-02T00:49:50;24.63;;;16.05;;
42598;SDS011;28225;42.714;23.860;2024-03-02T00:50:05;24.47;;;15.80;;
42598;SDS011;28225;42.714;23.860;2024-03-02T00:50:22;22.33;;;15.50;;
42598;SDS011;28225;42.714;23.860;2024-03-02T00:50:38;21.77;;;16.07;;
42598;SDS011;28225;42.714;23.860;2024-03-02T00:50:53;22.75;;;16.42;;
42598;SDS011;28225;42.714;23.860;2024-03-02T00:51:09;22.45;;;15.88;;
42598;SDS011;28225;42.714;23.860;2024-03-02T00:51:25;22.10;;;15.50;;
42598;SDS011;28225;42.714;23.860;2024-03-02T00:51:45;22.73;;;16.45;;
42598;SDS011;28225;42.714;23.860;2024-03-02T00:52:02;22.08;;;16.25;;
42598;SDS011;28225;42.714;23.860;2024-03-02T00:52:18;21.80;;;15.65;;
42598;SDS011;28225;42.714;23.860;2024-03-02T00:52:33;23.57;;;15.63;;
42598;SDS011;28225;42.714;23.860;2024-03-02T00:52:49;26.73;;;16.30;;
42598;SDS011;28225;42.714;23.860;2024-03-02T00:53:05;25.93;;;16.80;;
42598;SDS011;28225;42.714;23.860;2024-03-02T00:53:21;22.55;;;16.60;;
42598;SDS011;28225;42.714;23.860;2024-03-02T00:53:39;22.65;;;15.88;;
42598;SDS011;28225;42.714;23.860;2024-03-02T00:53:55;23.10;;;15.67;;
42598;SDS011;28225;42.714;23.860;2024-03-02T00:54:13;22.95;;;15.68;;
42598;SDS011;28225;42.714;23.860;2024-03-02T00:54:29;22.20;;;15.50;;
42598;SDS011;28225;42.714;23.860;2024-03-02T00:54:44;22.55;;;16.52;;
42598;SDS011;28225;42.714;23.860;2024-03-02T00:55:00;22.53;;;16.97;;
42598;SDS011;28225;42.714;23.860;2024-03-02T00:55:15;22.17;;;16.27;;
42598;SDS011;28225;42.714;23.860;2024-03-02T00:55:31;24.33;;;16.87;;
42598;SDS011;28225;42.714;23.860;2024-03-02T00:55:52;25.98;;;17.42;;
42598;SDS011;28225;42.714;23.860;2024-03-02T00:56:09;26.20;;;17.67;;
42598;SDS011;28225;42.714;23.860;2024-03-02T00:56:25;24.83;;;16.70;;
42598;SDS011;28225;42.714;23.860;2024-03-02T00:56:41;23.43;;;16.40;;
42598;SDS011;28225;42.714;23.860;2024-03-02T00:56:57;27.00;;;17.00;;
42598;SDS011;28225;42.714;23.860;2024-03-02T00:57:12;26.98;;;17.50;;
42598;SDS011;28225;42.714;23.860;2024-03-02T00:57:28;26.90;;;17.63;;
42598;SDS011;28225;42.714;23.860;2024-03-02T00:57:47;28.67;;;17.38;;
42598;SDS011;28225;42.714;23.860;2024-03-02T00:58:02;26.30;;;17.20;;
42598;SDS011;28225;42.714;23.860;2024-03-02T00:58:18;23.13;;;17.20;;
42598;SDS011;28225;42.714;23.860;2024-03-02T00:58:33;24.63;;;17.20;;
42598;SDS011;28225;42.714;23.860;2024-03-02T00:58:49;26.27;;;17.47;;
42598;SDS011;28225;42.714;23.860;2024-03-02T00:59:05;27.42;;;17.90;;
42598;SDS011;28225;42.714;23.860;2024-03-02T00:59:21;27.70;;;17.73;;
42598;SDS011;28225;42.714;23.860;2024-03-02T00:59:37;26.80;;;16.90;;
42598;SDS011;28225;42.714;23.860;2024-03-02T00:59:52;25.30;;;16.02;;
42598;SDS011;28225;42.714;23.860;2024-03-02T01:00:08;24.73;;;15.90;;
42598;SDS011;28225;42.714;23.860;2024-03-02T01:00:27;27.50;;;17.45;;
42598;SDS011;28225;42.714;23.860;2024-03-02T01:00:42;27.47;;;17.43;;
42598;SDS011;28225;42.714;23.860;2024-03-02T01:00:57;27.20;;;16.92;;
42598;SDS011;28225;42.714;23.860;2024-03-02T01:01:13;26.93;;;17.13;;
42598;SDS011;28225;42.714;23.860;2024-03-02T01:01:28;26.65;;;17.10;;
42598;SDS011;28225;42.714;23.860;2024-03-02T01:01:44;26.20;;;17.03;;
42598;SDS011;28225;42.714;23.860;2024-03-02T01:01:59;24.70;;;17.52;;
42598;SDS011;28225;42.714;23.860;2024-03-02T01:02:15;25.27;;;17.27;;
42598;SDS011;28225;42.714;23.860;2024-03-02T01:02:30;26.83;;;17.65;;
42598;SDS011;28225;42.714;23.860;2024-03-02T01:02:46;27.23;;;17.63;;
42598;SDS011;28225;42.714;23.860;2024-03-02T01:03:02;26.33;;;17.35;;
42598;SDS011;28225;42.714;23.860;2024-03-02T01:03:19;25.67;;;17.63;;
42598;SDS011;28225;42.714;23.860;2024-03-02T01:03:34;26.10;;;17.67;;
42598;SDS011;28225;42.714;23.860;2024-03-02T01:03:50;25.83;;;17.50;;
42598;SDS011;28225;42.714;23.860;2024-03-02T01:04:05;26.60;;;17.25;;
42598;SDS011;28225;42.714;23.860;2024-03-02T01:04:21;27.57;;;17.20;;
42598;SDS011;28225;42.714;23.860;2024-03-02T01:04:36;28.87;;;18.13;;
42598;SDS011;28225;42.714;23.860;2024-03-02T01:04:52;27.25;;;17.55;;
42598;SDS011;28225;42.714;23.860;2024-03-02T01:05:07;23.07;;;16.37;;
42598;SDS011;28225;42.714;23.860;2024-03-02T01:05:23;22.60;;;16.45;;
42598;SDS011;28225;42.714;23.860;2024-03-02T01:05:41;23.65;;;16.85;;
42598;SDS011;28225;42.714;23.860;2024-03-02T01:05:57;25.48;;;16.70;;
42598;SDS011;28225;42.714;23.860;2024-03-02T01:06:13;25.15;;;17.25;;
42598;SDS011;28225;42.714;23.860;2024-03-02T01:06:28;25.03;;;17.97;;
42598;SDS011;28225;42.714;23.860;2024-03-02T01:06:44;26.05;;;17.60;;
42598;SDS011;28225;42.714;23.860;2024-03-02T01:06:59;25.50;;;16.70;;
42598;SDS011;28225;42.714;23.860;2024-03-02T01:07:15;24.27;;;16.35;;
42598;SDS011;28225;42.714;23.860;2024-03-02T01:07:30;25.80;;;16.80;;
42598;SDS011;28225;42.714;23.860;2024-03-02T01:07:45;25.35;;;17.65;;
42598;SDS011;28225;42.714;23.860;2024-03-02T01:08:02;24.73;;;17.63;;
42598;SDS011;28225;42.714;23.860;2024-03-02T01:08:17;24.75;;;17.05;;
42598;SDS011;28225;42.714;23.860;2024-03-02T01:08:34;24.93;;;16.87;;
42598;SDS011;28225;42.714;23.860;2024-03-02T01:08:52;25.75;;;16.67;;
42598;SDS011;28225;42.714;23.860;2024-03-02T01:09:07;26.42;;;17.60;;
42598;SDS011;28225;42.714;23.860;2024-03-02T01:09:23;26.03;;;17.93;;
42598;SDS011;28225;42.714;23.860;2024-03-02T01:09:38;26.30;;;17.93;;
42598;SDS011;28225;42.714;23.860;2024-03-02T01:09:54;26.83;;;17.83;;
42598;SDS011;28225;42.714;23.860;2024-03-02T01:10:09;28.07;;;18.30;;
42598;SDS011;28225;42.714;23.860;2024-03-02T01:10:25;28.27;;;18.65;;
42598;SDS011;28225;42.714;23.860;2024-03-02T01:10:41;28.30;;;17.95;;
42598;SDS011;28225;42.714;23.860;2024-03-02T01:10:56;27.83;;;17.47;;
42598;SDS011;28225;42.714;23.860;2024-03-02T01:11:12;25.20;;;17.38;;
42598;SDS011;28225;42.714;23.860;2024-03-02T01:11:27;27.77;;;17.60;;
42598;SDS011;28225;42.714;23.860;2024-03-02T01:11:43;29.17;;;17.58;;
42598;SDS011;28225;42.714;23.860;2024-03-02T01:11:58;25.17;;;17.17;;
42598;SDS011;28225;42.714;23.860;2024-03-02T01:12:14;26.95;;;17.80;;
42598;SDS011;28225;42.714;23.860;2024-03-02T01:12:30;30.77;;;18.80;;
42598;SDS011;28225;42.714;23.860;2024-03-02T01:12:45;29.73;;;19.07;;
42598;SDS011;28225;42.714;23.860;2024-03-02T01:13:01;26.33;;;18.42;;
42598;SDS011;28225;42.714;23.860;2024-03-02T01:13:16;26.13;;;18.00;;
42598;SDS011;28225;42.714;23.860;2024-03-02T01:13:32;28.05;;;18.33;;
42598;SDS011;28225;42.714;23.860;2024-03-02T01:13:48;27.27;;;17.67;;
42598;SDS011;28225;42.714;23.860;2024-03-02T01:14:03;27.40;;;17.87;;
42598;SDS011;28225;42.714;23.860;2024-03-02T01:14:19;27.77;;;18.25;;
42598;SDS011;28225;42.714;23.860;2024-03-02T01:14:35;25.60;;;16.95;;
42598;SDS011;28225;42.714;23.860;2024-03-02T01:14:50;27.40;;;17.37;;
42598;SDS011;28225;42.714;23.860;2024-03-02T01:15:06;30.63;;;18.38;;
42598;SDS011;28225;42.714;23.860;2024-03-02T01:15:23;27.92;;;18.15;;
42598;SDS011;28225;42.714;23.860;2024-03-02T01:15:38;27.23;;;18.13;;
42598;SDS011;28225;42.714;23.860;2024-03-02T01:15:54;29.65;;;18.95;;
42598;SDS011;28225;42.714;23.860;2024-03-02T01:16:09;27.43;;;18.03;;
42598;SDS011;28225;42.714;23.860;2024-03-02T01:16:25;26.50;;;17.27;;
42598;SDS011;28225;42.714;23.860;2024-03-02T01:16:40;27.47;;;17.33;;
42598;SDS011;28225;42.714;23.860;2024-03-02T01:16:55;27.03;;;17.10;;
42598;SDS011;28225;42.714;23.860;2024-03-02T01:17:11;26.83;;;16.95;;
42598;SDS011;28225;42.714;23.860;2024-03-02T01:17:26;25.90;;;17.47;;
42598;SDS011;28225;42.714;23.860;2024-03-02T01:17:42;25.08;;;17.88;;
42598;SDS011;28225;42.714;23.860;2024-03-02T01:17:57;26.07;;;17.73;;
42598;SDS011;28225;42.714;23.860;2024-03-02T01:18:13;25.33;;;17.67;;
42598;SDS011;28225;42.714;23.860;2024-03-02T01:18:28;24.40;;;17.73;;
42598;SDS011;28225;42.714;23.860;2024-03-02T01:18:44;27.35;;;18.45;;
42598;SDS011;28225;42.714;23.860;2024-03-02T01:19:00;27.55;;;18.90;;
42598;SDS011;28225;42.714;23.860;2024-03-02T01:19:15;27.23;;;18.30;;
42598;SDS011;28225;42.714;23.860;2024-03-02T01:19:30;25.00;;;17.10;;
42598;SDS011;28225;42.714;23.860;2024-03-02T01:19:46;24.95;;;16.88;;
42598;SDS011;28225;42.714;23.860;2024-03-02T01:20:01;25.93;;;17.30;;
42598;SDS011;28225;42.714;23.860;2024-03-02T01:20:17;26.77;;;17.63;;
42598;SDS011;28225;42.714;23.860;2024-03-02T01:20:33;27.75;;;18.58;;
42598;SDS011;28225;42.714;23.860;2024-03-02T01:20:48;26.30;;;18.27;;
42598;SDS011;28225;42.714;23.860;2024-03-02T01:21:06;25.15;;;16.83;;
42598;SDS011;28225;42.714;23.860;2024-03-02T01:21:22;23.25;;;15.60;;
42598;SDS011;28225;42.714;23.860;2024-03-02T01:21:37;24.03;;;16.00;;
42598;SDS011;28225;42.714;23.860;2024-03-02T01:21:52;24.20;;;16.80;;
42598;SDS011;28225;42.714;23.860;2024-03-02T01:22:08;25.65;;;16.83;;
42598;SDS011;28225;42.714;23.860;2024-03-02T01:22:23;25.20;;;16.77;;
42598;SDS011;28225;42.714;23.860;2024-03-02T01:22:40;24.48;;;17.05;;
42598;SDS011;28225;42.714;23.860;2024-03-02T01:22:56;23.90;;;16.73;;
42598;SDS011;28225;42.714;23.860;2024-03-02T01:23:11;24.90;;;17.13;;
42598;SDS011;28225;42.714;23.860;2024-03-02T01:23:27;25.40;;;17.33;;
42598;SDS011;28225;42.714;23.860;2024-03-02T01:23:42;23.60;;;16.43;;
42598;SDS011;28225;42.714;23.860;2024-03-02T01:23:58;26.48;;;16.77;;
42598;SDS011;28225;42.714;23.860;2024-03-02T01:24:14;28.90;;;17.27;;
42598;SDS011;28225;42.714;23.860;2024-03-02T01:24:29;27.67;;;17.07;;
42598;SDS011;28225;42.714;23.860;2024-03-02T01:24:45;26.90;;;17.07;;
42598;SDS011;28225;42.714;23.860;2024-03-02T01:25:00;28.15;;;16.55;;
42598;SDS011;28225;42.714;23.860;2024-03-02T01:25:15;27.80;;;16.50;;
42598;SDS011;28225;42.714;23.860;2024-03-02T01:25:31;26.15;;;17.08;;
42598;SDS011;28225;42.714;23.860;2024-03-02T01:25:46;26.27;;;17.03;;
42598;SDS011;28225;42.714;23.860;2024-03-02T01:26:02;24.38;;;16.63;;
42598;SDS011;28225;42.714;23.860;2024-03-02T01:26:18;24.52;;;17.02;;
42598;SDS011;28225;42.714;23.860;2024-03-02T01:26:33;25.57;;;17.37;;
42598;SDS011;28225;42.714;23.860;2024-03-02T01:26:49;25.48;;;16.85;;
42598;SDS011;28225;42.714;23.860;2024-03-02T01:27:04;26.77;;;16.93;;
42598;SDS011;28225;42.714;23.860;2024-03-02T01:27:20;25.67;;;17.07;;
42598;SDS011;28225;42.714;23.860;2024-03-02T01:27:35;25.45;;;17.25;;
42598;SDS011;28225;42.714;23.860;2024-03-02T01:27:51;25.83;;;17.23;;
42598;SDS011;28225;42.714;23.860;2024-03-02T01:28:06;24.35;;;16.65;;
42598;SDS011;28225;42.714;23.860;2024-03-02T01:28:22;23.47;;;16.40;;
42598;SDS011;28225;42.714;23.860;2024-03-02T01:28:37;24.15;;;16.42;;
42598;SDS011;28225;42.714;23.860;2024-03-02T01:28:52;25.73;;;17.03;;
42598;SDS011;28225;42.714;23.860;2024-03-02T01:29:08;25.17;;;17.05;;
42598;SDS011;28225;42.714;23.860;2024-03-02T01:29:23;26.63;;;16.93;;
42598;SDS011;28225;42.714;23.860;2024-03-02T01:29:39;28.13;;;16.20;;
42598;SDS011;28225;42.714;23.860;2024-03-02T01:29:54;24.27;;;15.23;;
42598;SDS011;28225;42.714;23.860;2024-03-02T01:30:10;24.00;;;16.20;;
42598;SDS011;28225;42.714;23.860;2024-03-02T01:30:26;24.85;;;17.20;;
42598;SDS011;28225;42.714;23.860;2024-03-02T01:30:41;23.43;;;17.00;;
42598;SDS011;28225;42.714;23.860;2024-03-02T01:30:57;21.73;;;16.02;;
42598;SDS011;28225;42.714;23.860;2024-03-02T01:31:13;22.73;;;16.20;;
42598;SDS011;28225;42.714;23.860;2024-03-02T01:31:28;25.77;;;16.58;;
42598;SDS011;28225;42.714;23.860;2024-03-02T01:31:43;28.27;;;17.60;;
42598;SDS011;28225;42.714;23.860;2024-03-02T01:32:00;29.33;;;18.53;;
42598;SDS011;28225;42.714;23.860;2024-03-02T01:32:15;28.13;;;19.33;;
42598;SDS011;28225;42.714;23.860;2024-03-02T01:32:31;28.60;;;20.43;;
42598;SDS011;28225;42.714;23.860;2024-03-02T01:32:46;32.00;;;20.77;;
42598;SDS011;28225;42.714;23.860;2024-03-02T01:33:02;31.20;;;20.43;;
42598;SDS011;28225;42.714;23.860;2024-03-02T01:33:20;26.48;;;18.17;;
42598;SDS011;28225;42.714;23.860;2024-03-02T01:33:36;24.50;;;17.00;;
42598;SDS011;28225;42.714;23.860;2024-03-02T01:33:51;23.70;;;16.17;;
42598;SDS011;28225;42.714;23.860;2024-03-02T01:34:07;25.03;;;16.97;;
42598;SDS011;28225;42.714;23.860;2024-03-02T01:34:22;26.25;;;17.25;;
42598;SDS011;28225;42.714;23.860;2024-03-02T01:34:38;27.93;;;16.90;;
42598;SDS011;28225;42.714;23.860;2024-03-02T01:34:53;27.30;;;16.98;;
42598;SDS011;28225;42.714;23.860;2024-03-02T01:35:09;25.47;;;17.17;;
42598;SDS011;28225;42.714;23.860;2024-03-02T01:35:24;25.15;;;17.25;;
42598;SDS011;28225;42.714;23.860;2024-03-02T01:35:40;27.13;;;17.37;;
42598;SDS011;28225;42.714;23.860;2024-03-02T01:35:55;28.20;;;17.92;;
42598;SDS011;28225;42.714;23.860;2024-03-02T01:36:11;26.43;;;17.90;;
42598;SDS011;28225;42.714;23.860;2024-03-02T01:36:26;25.30;;;17.75;;
42598;SDS011;28225;42.714;23.860;2024-03-02T01:36:42;26.53;;;18.27;;
42598;SDS011;28225;42.714;23.860;2024-03-02T01:36:57;26.75;;;17.70;;